createdAt,value
2022-09-23T00:01:41.669Z,38757.50
2022-09-23T00:04:09.368Z,38745.53
2022-09-23T00:06:39.717Z,38767.47
2022-09-23T00:09:07.136Z,38833.25
2022-09-23T00:11:34.437Z,38813.31
2022-09-23T00:14:01.980Z,38821.28
2022-09-23T00:16:34.105Z,38819.28
2022-09-23T00:19:04.639Z,38809.31
2022-09-23T00:21:34.870Z,38841.22
2022-09-23T00:24:04.910Z,38837.22
2022-09-23T00:26:32.216Z,38873.13
2022-09-23T00:29:02.052Z,38835.25
2022-09-23T00:31:29.499Z,38891.06
2022-09-23T00:33:59.324Z,38891.06
2022-09-23T00:36:32.202Z,38901.03
2022-09-23T00:39:04.558Z,38897.03
2022-09-23T00:41:37.165Z,38930.94
2022-09-23T00:44:42.518Z,38958.84
2022-09-23T00:47:19.372Z,38946.88
2022-09-23T00:49:56.048Z,38918.97
2022-09-23T00:52:24.002Z,38976.78
2022-09-23T00:54:55.269Z,38946.88
2022-09-23T00:57:27.241Z,38956.84
2022-09-23T00:59:55.105Z,38988.75
2022-09-23T01:02:22.626Z,39020.66
2022-09-23T01:04:51.057Z,38978.78
2022-09-23T01:07:21.983Z,39024.63
2022-09-23T01:09:51.952Z,39002.72
2022-09-23T01:12:34.308Z,39028.63
2022-09-23T01:15:16.185Z,39022.66
2022-09-23T01:18:02.165Z,39074.47
2022-09-23T01:20:42.165Z,39050.56
2022-09-23T01:23:46.441Z,39078.47
2022-09-23T01:26:20.338Z,39092.44
2022-09-23T01:29:27.147Z,39090.44
2022-09-23T01:32:08.024Z,39088.44
2022-09-23T01:35:22.588Z,39144.28
2022-09-23T01:38:05.227Z,39112.38
2022-09-23T01:40:43.597Z,39118.34
2022-09-23T01:43:49.416Z,39156.22
2022-09-23T01:46:28.027Z,39112.38
2022-09-23T01:49:05.129Z,39138.28
2022-09-23T01:51:46.217Z,39174.19
2022-09-23T01:54:31.451Z,39172.19
2022-09-23T01:57:05.371Z,39156.22
2022-09-23T01:59:43.410Z,39194.13
2022-09-23T02:02:22.050Z,39188.13
2022-09-23T02:05:02.618Z,39166.19
2022-09-23T02:07:48.250Z,39150.25
2022-09-23T02:10:19.624Z,39160.22
2022-09-23T02:12:50.052Z,39210.06
2022-09-23T02:15:23.549Z,39204.09
2022-09-23T02:17:55.792Z,39224.03
2022-09-23T02:20:29.939Z,39224.03
2022-09-23T02:23:07.631Z,39243.97
2022-09-23T02:25:55.335Z,39251.94
2022-09-23T02:28:37.764Z,39239.97
2022-09-23T02:32:01.603Z,39275.88
2022-09-23T02:34:42.072Z,39247.94
2022-09-23T02:37:15.447Z,39285.84
2022-09-23T02:40:10.710Z,39261.91
2022-09-23T02:43:08.338Z,39283.84
2022-09-23T02:45:37.946Z,39275.88
2022-09-23T02:48:26.415Z,39311.75
2022-09-23T02:50:54.570Z,39281.84
2022-09-23T02:53:26.717Z,39230.00
2022-09-23T02:55:57.066Z,39152.25
2022-09-23T02:58:24.630Z,39118.34
2022-09-23T03:00:55.223Z,39102.41
2022-09-23T03:03:46.709Z,39044.56
2022-09-23T03:06:32.158Z,39036.59
2022-09-23T03:09:11.583Z,39024.63
2022-09-23T03:11:46.715Z,38980.78
2022-09-23T03:14:41.172Z,38994.72
2022-09-23T03:17:15.974Z,38954.84
2022-09-23T03:19:48.404Z,38924.94
2022-09-23T03:22:24.661Z,38914.97
2022-09-23T03:24:54.423Z,38913.00
2022-09-23T03:27:29.913Z,38907.00
2022-09-23T03:29:57.614Z,38905.00
2022-09-23T03:32:28.072Z,38998.72
2022-09-23T03:34:58.736Z,39074.47
2022-09-23T03:37:32.483Z,39068.50
2022-09-23T03:40:11.236Z,39136.28
2022-09-23T03:42:40.020Z,39136.28
2022-09-23T03:45:13.391Z,39144.28
2022-09-23T03:47:42.334Z,39116.34
2022-09-23T03:50:10.186Z,39108.38
2022-09-23T03:52:40.070Z,39052.56
2022-09-23T03:55:16.502Z,38968.81
2022-09-23T03:57:48.542Z,38944.88
2022-09-23T04:00:16.679Z,38944.88
2022-09-23T04:02:44.556Z,38940.91
2022-09-23T04:05:13.634Z,38885.09
2022-09-23T04:07:41.375Z,38873.13
2022-09-23T04:10:10.968Z,38869.13
2022-09-23T04:12:38.863Z,38849.19
2022-09-23T04:15:06.870Z,38841.22
2022-09-23T04:17:35.549Z,38825.28
2022-09-23T04:20:03.650Z,38797.34
2022-09-23T04:22:32.752Z,38801.34
2022-09-23T04:25:00.453Z,38817.28
2022-09-23T04:27:27.766Z,38797.34
2022-09-23T04:29:55.529Z,38749.50
2022-09-23T04:32:25.318Z,38789.38
2022-09-23T04:34:52.634Z,38769.44
2022-09-23T04:37:20.079Z,38801.34
2022-09-23T04:39:47.703Z,38781.41
2022-09-23T04:42:15.339Z,38789.38
2022-09-23T04:44:43.882Z,38795.38
2022-09-23T04:47:11.356Z,38801.34
2022-09-23T04:49:43.263Z,38873.13
2022-09-23T04:52:12.017Z,38936.91
2022-09-23T04:54:41.583Z,39056.53
2022-09-23T04:57:11.141Z,39261.91
2022-09-23T04:59:41.721Z,39331.69
2022-09-23T05:02:11.183Z,39379.56
2022-09-23T05:04:39.761Z,39421.41
2022-09-23T05:07:07.586Z,39431.38
2022-09-23T05:09:35.238Z,39489.22
2022-09-23T05:12:03.440Z,39471.28
2022-09-23T05:14:31.159Z,39521.13
2022-09-23T05:16:58.640Z,39539.06
2022-09-23T05:19:26.555Z,39582.94
2022-09-23T05:21:55.078Z,39559.00
2022-09-23T05:24:26.215Z,39497.19
2022-09-23T05:26:55.871Z,39355.63
2022-09-23T05:29:23.167Z,39271.88
2022-09-23T05:31:50.735Z,39235.97
2022-09-23T05:34:18.795Z,39168.19
2022-09-23T05:36:46.287Z,39148.25
2022-09-23T05:39:15.912Z,39098.41
2022-09-23T05:41:43.620Z,39070.50
2022-09-23T05:44:14.700Z,39068.50
2022-09-23T05:46:42.191Z,39046.56
2022-09-23T05:49:10.039Z,39142.28
2022-09-23T05:51:37.870Z,39204.09
2022-09-23T05:54:06.465Z,39204.09
2022-09-23T05:56:34.825Z,39164.22
2022-09-23T05:59:02.749Z,39138.28
2022-09-23T06:01:38.123Z,39136.28
2022-09-23T06:04:12.681Z,39094.41
2022-09-23T06:06:42.234Z,39088.44
2022-09-23T06:09:14.702Z,39100.41
2022-09-23T06:11:42.570Z,39076.47
2022-09-23T06:14:13.254Z,39052.56
2022-09-23T06:16:43.074Z,39168.19
2022-09-23T06:19:10.871Z,39112.38
2022-09-23T06:21:40.524Z,39102.41
2022-09-23T06:24:12.708Z,39048.56
2022-09-23T06:26:43.097Z,39010.69
2022-09-23T06:29:11.964Z,38974.78
2022-09-23T06:31:41.251Z,38905.00
2022-09-23T06:34:14.411Z,38889.06
2022-09-23T06:36:45.390Z,38861.16
2022-09-23T06:39:15.501Z,38787.38
2022-09-23T06:41:45.266Z,38715.63
2022-09-23T06:44:14.545Z,38733.56
2022-09-23T06:46:42.703Z,38711.63
2022-09-23T06:49:13.463Z,38695.69
2022-09-23T06:51:42.426Z,38695.69
2022-09-23T06:54:11.503Z,38677.75
2022-09-23T06:56:40.104Z,38651.81
2022-09-23T06:59:10.879Z,38623.91
2022-09-23T07:01:38.650Z,38564.13
2022-09-23T07:04:07.640Z,38520.25
2022-09-23T07:06:35.681Z,38474.41
2022-09-23T07:09:03.935Z,38418.59
2022-09-23T07:11:31.801Z,38440.53
2022-09-23T07:14:01.343Z,38462.44
2022-09-23T07:16:28.815Z,38470.41
2022-09-23T07:18:56.361Z,38518.25
2022-09-23T07:21:24.249Z,38474.41
2022-09-23T07:23:55.246Z,38458.47
2022-09-23T07:26:22.896Z,38368.75
2022-09-23T07:29:04.740Z,38304.97
2022-09-23T07:31:39.359Z,38342.84
2022-09-23T07:34:11.485Z,38370.75
2022-09-23T07:36:40.862Z,38324.91
2022-09-23T07:39:11.327Z,38360.78
2022-09-23T07:41:39.199Z,38492.34
2022-09-23T07:44:06.514Z,38803.34
2022-09-23T07:46:36.014Z,39245.97
2022-09-23T07:49:05.141Z,39662.69
2022-09-23T07:51:36.814Z,40679.88
2022-09-23T07:54:10.128Z,42667.22
2022-09-23T07:56:37.880Z,44410.13
2022-09-23T07:59:09.003Z,46617.47
2022-09-23T08:01:39.800Z,51076.56
2022-09-23T08:04:11.689Z,56904.22
2022-09-23T08:06:50.243Z,62553.16
2022-09-23T08:09:19.959Z,66410.09
2022-09-23T08:11:50.922Z,65895.59
2022-09-23T08:14:18.931Z,70786.59
2022-09-23T08:16:47.757Z,74652.84
2022-09-23T08:19:15.964Z,76974.69
2022-09-23T08:21:43.929Z,74910.75
2022-09-23T08:24:20.892Z,74394.94
2022-09-23T08:26:51.494Z,73105.81
2022-09-23T08:29:21.079Z,73105.81
2022-09-23T08:31:49.839Z,70528.97
2022-09-23T08:34:18.901Z,67439.34
2022-09-23T08:36:46.825Z,65123.97
2022-09-23T08:39:18.886Z,63067.16
2022-09-23T08:41:58.803Z,60754.75
2022-09-23T08:44:58.423Z,57417.38
2022-09-23T08:47:43.736Z,55365.22
2022-09-23T08:50:19.417Z,53058.03
2022-09-23T08:53:08.531Z,50226.28
2022-09-23T08:55:51.943Z,47744.69
2022-09-23T08:58:55.216Z,45952.13
2022-09-23T09:01:35.735Z,46313.75
2022-09-23T09:04:40.539Z,44903.41
2022-09-23T09:07:34.751Z,43914.91
2022-09-23T09:10:18.645Z,43383.84
2022-09-23T09:12:52.088Z,42798.97
2022-09-23T09:15:26.620Z,42575.41
2022-09-23T09:18:12.600Z,42168.28
2022-09-23T09:21:00.551Z,41761.19
2022-09-23T09:23:45.099Z,41420.00
2022-09-23T09:26:21.317Z,41174.59
2022-09-23T09:29:23.404Z,40993.06
2022-09-23T09:31:51.812Z,40809.53
2022-09-23T09:34:48.070Z,40536.25
2022-09-23T09:37:34.117Z,40476.41
2022-09-23T09:40:03.517Z,40707.78
2022-09-23T09:42:39.927Z,40620.03
2022-09-23T09:45:33.861Z,40496.34
2022-09-23T09:48:15.545Z,40562.19
2022-09-23T09:50:53.602Z,40725.75
2022-09-23T09:53:32.136Z,40787.59
2022-09-23T09:56:06.144Z,40653.94
2022-09-23T09:58:51.806Z,40592.09
2022-09-23T10:01:34.259Z,40548.22
2022-09-23T10:04:05.137Z,40765.66
2022-09-23T10:06:35.796Z,40717.78
2022-09-23T10:09:19.525Z,40514.31
2022-09-23T10:12:11.406Z,40522.28
2022-09-23T10:14:39.033Z,40833.47
2022-09-23T10:17:14.936Z,40887.34
2022-09-23T10:19:50.884Z,40919.25
2022-09-23T10:22:30.042Z,40795.56
2022-09-23T10:25:03.226Z,40801.56
2022-09-23T10:27:36.199Z,41082.84
2022-09-23T10:30:05.249Z,41214.50
2022-09-23T10:32:36.443Z,41294.31
2022-09-23T10:35:09.770Z,41511.78
2022-09-23T10:37:57.420Z,41455.91
2022-09-23T10:41:02.835Z,40274.97
2022-09-23T10:44:05.492Z,39738.47
2022-09-23T10:46:47.544Z,39499.19
2022-09-23T10:49:33.766Z,39208.06
2022-09-23T10:52:45.382Z,39132.31
2022-09-23T10:56:02.408Z,39102.41
2022-09-23T10:58:52.449Z,39070.50
2022-09-23T11:01:49.265Z,38926.94
2022-09-23T11:04:41.661Z,38899.03
2022-09-23T11:07:23.850Z,38913.00
2022-09-23T11:10:00.501Z,38928.94
2022-09-23T11:13:06.399Z,38845.22
2022-09-23T11:15:50.661Z,38837.22
2022-09-23T11:18:49.869Z,38827.25
2022-09-23T11:21:33.555Z,38709.63
2022-09-23T11:24:01.353Z,38633.88
2022-09-23T11:26:45.536Z,38562.13
2022-09-23T11:29:44.017Z,38524.25
2022-09-23T11:32:48.225Z,38470.41
2022-09-23T11:35:26.007Z,38420.59
2022-09-23T11:38:01.818Z,38434.53
2022-09-23T11:40:43.877Z,38394.66
2022-09-23T11:43:30.403Z,38362.78
2022-09-23T11:46:14.268Z,38358.78
2022-09-23T11:48:55.725Z,38348.81
2022-09-23T11:51:36.618Z,38488.38
2022-09-23T11:54:21.214Z,38528.22
2022-09-23T11:56:54.676Z,38552.16
2022-09-23T12:02:43.587Z,38542.19
2022-09-23T12:05:22.726Z,38558.13
2022-09-23T12:08:12.707Z,38572.09
2022-09-23T12:10:59.545Z,38580.06
2022-09-23T12:13:45.151Z,38554.16
2022-09-23T12:16:22.057Z,38570.09
2022-09-23T12:18:59.963Z,38562.13
2022-09-23T12:21:51.278Z,38568.09
2022-09-23T12:24:42.056Z,38530.22
2022-09-23T12:27:24.016Z,38510.28
2022-09-23T12:29:57.747Z,38526.25
2022-09-23T12:32:26.455Z,38526.25
2022-09-23T12:34:54.553Z,38510.28
2022-09-23T12:37:34.401Z,38508.28
2022-09-23T12:40:22.326Z,38522.25
2022-09-23T12:42:50.733Z,38552.16
2022-09-23T12:45:32.825Z,38526.25
2022-09-23T12:48:24.674Z,38526.25
2022-09-23T12:50:57.064Z,38504.31
2022-09-23T12:53:33.697Z,38506.31
2022-09-23T12:56:15.465Z,38544.19
2022-09-23T12:58:43.932Z,38562.13
2022-09-23T13:01:15.167Z,38524.25
2022-09-23T13:04:17.195Z,38564.13
2022-09-23T13:07:05.885Z,38540.19
2022-09-23T13:09:41.113Z,38570.09
2022-09-23T13:12:24.356Z,38518.25
2022-09-23T13:14:54.788Z,38572.09
2022-09-23T13:17:29.856Z,38568.09
2022-09-23T13:20:26.243Z,38588.03
2022-09-23T13:22:53.506Z,38621.94
2022-09-23T13:25:32.569Z,38613.94
2022-09-23T13:28:02.582Z,38607.97
2022-09-23T13:30:30.446Z,38619.94
2022-09-23T13:33:46.098Z,38602.00
2022-09-23T13:36:16.002Z,38530.22
2022-09-23T13:38:46.125Z,38657.81
2022-09-23T13:41:25.188Z,38522.25
2022-09-23T13:43:59.227Z,38462.44
2022-09-23T13:46:30.218Z,38452.47
2022-09-23T13:48:57.564Z,38426.56
2022-09-23T13:51:30.225Z,38410.63
2022-09-23T13:53:59.661Z,38420.59
2022-09-23T13:56:30.179Z,38404.63
2022-09-23T13:59:25.899Z,38584.03
2022-09-23T14:02:04.911Z,38669.78
2022-09-23T14:04:32.664Z,38709.63
2022-09-23T14:07:02.207Z,38761.47
2022-09-23T14:09:30.717Z,38775.44
2022-09-23T14:12:00.881Z,38809.31
2022-09-23T14:14:30.296Z,38829.25
2022-09-23T14:16:58.701Z,38835.25
2022-09-23T14:19:26.650Z,38837.22
2022-09-23T14:22:00.636Z,38885.09
2022-09-23T14:24:37.961Z,38940.91
2022-09-23T14:27:08.544Z,38968.81
2022-09-23T14:29:49.425Z,38916.97
2022-09-23T14:32:30.044Z,38887.06
2022-09-23T14:35:01.049Z,38940.91
2022-09-23T14:37:57.841Z,38891.06
2022-09-23T14:40:38.136Z,38962.84
2022-09-23T14:43:24.198Z,38976.78
2022-09-23T14:46:01.933Z,39042.59
2022-09-23T14:48:39.598Z,39112.38
2022-09-23T14:51:17.063Z,39112.38
2022-09-23T14:53:47.680Z,39132.31
2022-09-23T14:56:21.612Z,39198.09
2022-09-23T14:58:59.440Z,39255.94
2022-09-23T15:01:34.032Z,39327.72
2022-09-23T15:04:21.905Z,39443.34
2022-09-23T15:07:17.288Z,39519.13
2022-09-23T15:09:45.938Z,39479.25
2022-09-23T15:12:22.518Z,39531.09
2022-09-23T15:14:54.378Z,39602.88
2022-09-23T15:17:33.181Z,39666.69
2022-09-23T15:20:20.608Z,39937.91
2022-09-23T15:22:56.352Z,40121.38
2022-09-23T15:25:36.345Z,40229.09
2022-09-23T15:28:17.635Z,40400.63
2022-09-23T15:30:47.712Z,40570.16
2022-09-23T15:33:17.429Z,40592.09
2022-09-23T15:35:50.578Z,40681.88
2022-09-23T15:38:22.013Z,40795.56
2022-09-23T15:40:50.313Z,40971.13
2022-09-23T15:43:24.151Z,40883.34
2022-09-23T15:45:58.638Z,40805.53
2022-09-23T15:48:32.546Z,41334.22
2022-09-23T15:51:04.936Z,41475.88
2022-09-23T15:53:34.737Z,41858.97
2022-09-23T15:56:04.282Z,42128.38
2022-09-23T15:58:32.737Z,42627.31
2022-09-23T16:01:02.153Z,43100.38
2022-09-23T16:03:35.428Z,43429.75
2022-09-23T16:06:06.721Z,43767.16
2022-09-23T16:08:35.836Z,44378.16
2022-09-23T16:11:08.629Z,44723.66
2022-09-23T16:13:37.621Z,45438.72
2022-09-23T16:16:08.606Z,46127.94
2022-09-23T16:18:38.457Z,46813.31
2022-09-23T16:21:09.039Z,46725.38
2022-09-23T16:23:43.469Z,46821.31
2022-09-23T16:26:27.288Z,47392.91
2022-09-23T16:28:57.213Z,45374.78
2022-09-23T16:31:26.899Z,44679.72
2022-09-23T16:33:55.341Z,44120.56
2022-09-23T16:36:33.548Z,43956.84
2022-09-23T16:39:08.005Z,44332.25
2022-09-23T16:41:36.800Z,44234.38
2022-09-23T16:44:07.472Z,43773.16
2022-09-23T16:46:35.929Z,42992.56
2022-09-23T16:49:04.880Z,42900.75
2022-09-23T16:51:38.466Z,42783.00
2022-09-23T16:54:11.912Z,42535.50
2022-09-23T16:56:41.804Z,42623.31
2022-09-23T16:59:09.249Z,42994.56
2022-09-23T17:01:55.385Z,43339.91
2022-09-23T17:04:24.119Z,43956.84
2022-09-23T17:06:53.077Z,44436.06
2022-09-23T17:09:22.883Z,44525.94
2022-09-23T17:12:29.302Z,44785.56
2022-09-23T17:14:56.607Z,45334.84
2022-09-23T17:17:24.050Z,45918.16
2022-09-23T17:19:51.492Z,46531.56
2022-09-23T17:22:19.167Z,46757.34
2022-09-23T17:24:46.673Z,59727.50
2022-09-23T17:27:16.024Z,64095.41
2022-09-23T17:29:44.501Z,61782.28
2022-09-23T17:32:11.972Z,59214.00
2022-09-23T17:34:40.348Z,56904.22
2022-09-23T17:37:07.886Z,56647.66
2022-09-23T17:39:37.035Z,56391.13
2022-09-23T17:42:06.090Z,56391.13
2022-09-23T17:44:33.905Z,58957.28
2022-09-23T17:47:02.219Z,74394.94
2022-09-23T17:49:34.853Z,80331.25
2022-09-23T17:52:06.565Z,81623.09
2022-09-23T17:54:36.032Z,82398.44
2022-09-23T17:57:03.908Z,82656.94
2022-09-23T17:59:31.367Z,83173.97
2022-09-23T18:01:59.405Z,83432.50
2022-09-23T18:04:26.939Z,83949.66
2022-09-23T18:06:56.190Z,84466.88
2022-09-23T18:09:25.049Z,84725.53
2022-09-23T18:11:52.717Z,84725.53
2022-09-23T18:14:22.554Z,84725.53
2022-09-23T18:16:52.378Z,84725.53
2022-09-23T18:19:22.445Z,84725.53
2022-09-23T18:21:56.111Z,84725.53
2022-09-23T18:24:33.105Z,84725.53
2022-09-23T18:27:01.658Z,84725.53
2022-09-23T18:29:33.047Z,84725.53
2022-09-23T18:32:01.445Z,84466.88
2022-09-23T18:34:29.006Z,84466.88
2022-09-23T18:36:57.715Z,84725.53
2022-09-23T18:39:28.770Z,84984.19
2022-09-23T18:41:56.386Z,84984.19
2022-09-23T18:44:24.293Z,84984.19
2022-09-23T18:46:51.913Z,84984.19
2022-09-23T18:49:37.822Z,84984.19
2022-09-23T18:52:06.608Z,85242.88
2022-09-23T18:54:33.932Z,85242.88
2022-09-23T18:57:01.617Z,85242.88
2022-09-23T18:59:29.739Z,85242.88
2022-09-23T19:01:57.637Z,84984.19
2022-09-23T19:04:26.407Z,85242.88
2022-09-23T19:06:56.374Z,85501.56
2022-09-23T19:09:24.600Z,85501.56
2022-09-23T19:11:55.800Z,85501.56
2022-09-23T19:14:25.547Z,85760.28
2022-09-23T19:16:53.770Z,86019.03
2022-09-23T19:19:25.788Z,86019.03
2022-09-23T19:21:56.328Z,86019.03
2022-09-23T19:24:23.797Z,86019.03
2022-09-23T19:26:51.247Z,85760.28
2022-09-23T19:29:19.805Z,85760.28
2022-09-23T19:31:48.798Z,85501.56
2022-09-23T19:34:23.885Z,85760.28
2022-09-23T19:36:52.903Z,85760.28
2022-09-23T19:39:24.982Z,85760.28
2022-09-23T19:41:55.735Z,85501.56
2022-09-23T19:44:25.200Z,85501.56
2022-09-23T19:46:56.350Z,85501.56
2022-09-23T19:49:25.265Z,84466.88
2022-09-23T19:51:55.765Z,83432.50
2022-09-23T19:54:26.628Z,82656.94
2022-09-23T19:56:54.287Z,82915.44
2022-09-23T19:59:22.805Z,85501.56
2022-09-23T20:01:50.348Z,86019.03
2022-09-23T20:04:17.805Z,86019.03
2022-09-23T20:06:49.677Z,86019.03
2022-09-23T20:09:17.032Z,86019.03
2022-09-23T20:11:45.544Z,86019.03
2022-09-23T20:14:13.002Z,86019.03
2022-09-23T20:16:40.733Z,86019.03
2022-09-23T20:19:13.483Z,86019.03
2022-09-23T20:21:43.406Z,86019.03
2022-09-23T20:24:12.378Z,85760.28
2022-09-23T20:26:59.465Z,85242.88
2022-09-23T20:29:26.858Z,84984.19
2022-09-23T20:32:00.056Z,84725.53
2022-09-23T20:34:30.993Z,84984.19
2022-09-23T20:37:00.976Z,84466.88
2022-09-23T20:39:28.378Z,84208.25
2022-09-23T20:41:57.221Z,83949.66
2022-09-23T20:44:28.515Z,83691.06
2022-09-23T20:47:00.241Z,83173.97
2022-09-23T20:49:27.607Z,82656.94
2022-09-23T20:52:00.083Z,82398.44
2022-09-23T20:54:31.457Z,81881.53
2022-09-23T20:57:01.302Z,81364.69
2022-09-23T20:59:28.827Z,80847.91
2022-09-23T21:01:58.623Z,80331.25
2022-09-23T21:04:27.995Z,79814.63
2022-09-23T21:07:01.105Z,79298.09
2022-09-23T21:09:35.358Z,78781.66
2022-09-23T21:12:02.718Z,78265.28
2022-09-23T21:14:32.346Z,77748.97
2022-09-23T21:17:00.865Z,77490.88
2022-09-23T21:19:28.367Z,77232.75
2022-09-23T21:21:55.751Z,76974.69
2022-09-23T21:27:12.167Z,76200.56
2022-09-23T21:29:40.179Z,75942.56
2022-09-23T21:32:07.788Z,75684.56
2022-09-23T21:34:35.270Z,75168.66
2022-09-23T21:37:03.200Z,74394.94
2022-09-23T21:39:32.744Z,73879.22
2022-09-23T21:42:00.214Z,73363.59
2022-09-23T21:44:27.623Z,73105.81
2022-09-23T21:46:55.079Z,73105.81
2022-09-23T21:49:22.471Z,72590.28
2022-09-23T21:51:51.487Z,72332.56
2022-09-23T21:54:19.225Z,72074.84
2022-09-23T21:56:46.494Z,71817.16
2022-09-23T21:59:14.035Z,71559.47
2022-09-23T22:01:44.948Z,71301.84
2022-09-23T22:04:19.077Z,70786.59
2022-09-23T22:06:50.341Z,70528.97
2022-09-23T22:09:20.857Z,70271.41
2022-09-23T22:12:07.619Z,70013.84
2022-09-23T22:14:35.620Z,69756.31
2022-09-23T22:17:06.553Z,68983.81
2022-09-23T22:19:40.198Z,68726.38
2022-09-23T22:22:16.408Z,68726.38
2022-09-23T22:24:45.479Z,68983.81
2022-09-23T22:27:14.518Z,68468.91
2022-09-23T22:30:00.337Z,68211.50
2022-09-23T22:32:55.302Z,68468.91
2022-09-23T22:35:22.890Z,68211.50
2022-09-23T22:37:50.637Z,67696.72
2022-09-23T22:40:18.278Z,67439.34
2022-09-23T22:42:48.763Z,67182.00
2022-09-23T22:45:16.250Z,66667.38
2022-09-23T22:47:45.518Z,66152.84
2022-09-23T22:50:15.375Z,66152.84
2022-09-23T22:52:44.044Z,65638.38
2022-09-23T22:55:12.327Z,64866.81
2022-09-23T22:57:40.064Z,64609.66
2022-09-23T23:00:09.394Z,64352.53
2022-09-23T23:02:36.812Z,63838.31
2022-09-23T23:05:05.995Z,63838.31
2022-09-23T23:07:34.181Z,63324.19
2022-09-23T23:10:03.064Z,63067.16
2022-09-23T23:12:30.874Z,63067.16
2022-09-23T23:14:58.182Z,63581.25
2022-09-23T23:17:25.958Z,63324.19
2022-09-23T23:19:53.788Z,63067.16
2022-09-23T23:22:23.441Z,62810.16
2022-09-23T23:24:52.706Z,62553.16
2022-09-23T23:27:20.948Z,62553.16
2022-09-23T23:29:48.348Z,62039.22
2022-09-23T23:32:17.222Z,62039.22
2022-09-23T23:34:44.874Z,61782.28
2022-09-23T23:37:12.153Z,61268.47
2022-09-23T23:39:39.460Z,61268.47
2022-09-23T23:42:06.968Z,61011.59
2022-09-23T23:44:34.573Z,61011.59
2022-09-23T23:47:04.528Z,60754.75
2022-09-23T23:49:31.972Z,60497.91
2022-09-23T23:51:59.431Z,60241.09
2022-09-23T23:54:27.020Z,59984.28
2022-09-23T23:56:54.372Z,59727.50
2022-09-23T23:59:22.093Z,58700.59
